Time;durP1;ratioP1;P1;durP2;ratioP2;P2;SDS_P1;SDS_P2;PMS_P1;PMS_P2;Temp;Humidity;BMP_temperature;BMP_pressure;BME280_temperature;BME280_humidity;BME280_pressure;Samples;Min_cycle;Max_cycle;Signal;HPM_P1;HPM_P2
2023/11/14 00:01:15;;;;;;;33.13;5.13;;;12.10;99.90;;;;;;5041767;28;20288;-59
2023/11/14 00:03:43;;;;;;;36.50;5.10;;;12.10;99.90;;;;;;5038496;28;20745;-59
2023/11/14 00:06:12;;;;;;;27.30;4.67;;;12.00;99.90;;;;;;5039854;28;20220;-59
2023/11/14 00:08:40;;;;;;;31.40;5.33;;;12.00;99.90;;;;;;5040598;28;20216;-59
2023/11/14 00:11:10;;;;;;;33.47;5.07;;;11.90;99.90;;;;;;5045802;28;20228;-59
2023/11/14 00:13:39;;;;;;;30.50;5.67;;;11.90;99.90;;;;;;5041506;28;20637;-55
2023/11/14 00:16:08;;;;;;;30.57;5.67;;;11.80;99.90;;;;;;5040721;28;20294;-59
2023/11/14 00:18:37;;;;;;;34.80;5.37;;;11.80;99.90;;;;;;5046601;28;20220;-59
2023/11/14 00:21:05;;;;;;;31.63;5.50;;;11.90;99.90;;;;;;5042013;28;20222;-59
2023/11/14 00:23:33;;;;;;;23.43;4.70;;;11.90;99.90;;;;;;5033030;28;20225;-59
2023/11/14 00:26:03;;;;;;;29.23;5.10;;;12.00;99.90;;;;;;5041408;28;20250;-59
2023/11/14 00:28:32;;;;;;;35.77;5.93;;;12.00;99.90;;;;;;5045908;28;20223;-59
2023/11/14 00:31:01;;;;;;;29.17;5.83;;;11.90;99.90;;;;;;5039691;28;20216;-59
2023/11/14 00:33:29;;;;;;;33.70;5.63;;;12.00;99.90;;;;;;5038192;28;20209;-60
2023/11/14 00:35:58;;;;;;;30.90;5.47;;;11.90;99.90;;;;;;5037027;28;20220;-59
2023/11/14 00:38:26;;;;;;;27.43;5.50;;;12.00;99.90;;;;;;5042473;28;20296;-60
2023/11/14 00:40:54;;;;;;;28.70;5.17;;;12.10;99.90;;;;;;5043469;28;20194;-58
2023/11/14 00:43:23;;;;;;;44.67;6.63;;;12.10;99.90;;;;;;5039480;28;20280;-59
2023/11/14 00:45:52;;;;;;;31.87;5.43;;;12.10;99.90;;;;;;5040664;28;20228;-59
2023/11/14 00:48:20;;;;;;;30.63;4.97;;;12.10;99.90;;;;;;5039121;28;20319;-59
2023/11/14 00:50:48;;;;;;;31.87;5.33;;;12.10;99.90;;;;;;5038741;28;20225;-60
2023/11/14 00:53:17;;;;;;;31.63;4.97;;;12.10;99.90;;;;;;5044477;28;20243;-59
2023/11/14 00:55:46;;;;;;;35.53;5.10;;;12.10;99.90;;;;;;5042920;28;21144;-58
2023/11/14 00:58:14;;;;;;;34.03;5.53;;;12.10;99.90;;;;;;5043426;28;20316;-59
2023/11/14 01:00:42;;;;;;;33.67;5.53;;;12.10;99.90;;;;;;5036386;28;20216;-59
2023/11/14 01:03:12;;;;;;;35.73;6.10;;;12.10;99.90;;;;;;5038330;28;20212;-59
2023/11/14 01:05:40;;;;;;;35.77;5.23;;;12.10;99.90;;;;;;5077379;28;20279;-59
2023/11/14 01:08:09;;;;;;;34.93;5.73;;;12.10;99.90;;;;;;5044718;28;20228;-59
2023/11/14 01:10:37;;;;;;;37.27;5.60;;;12.10;99.90;;;;;;5042718;28;20251;-59
2023/11/14 01:13:05;;;;;;;35.37;5.47;;;12.10;99.90;;;;;;5048480;28;20272;-59
2023/11/14 01:15:34;;;;;;;34.53;5.67;;;12.10;99.90;;;;;;5047339;28;20221;-60
2023/11/14 01:18:02;;;;;;;24.27;4.93;;;12.20;99.90;;;;;;5045880;28;20226;-59
2023/11/14 01:20:32;;;;;;;39.37;5.90;;;12.20;99.90;;;;;;5048321;28;20220;-59
2023/11/14 01:23:01;;;;;;;26.60;5.60;;;12.20;99.90;;;;;;5050176;28;20227;-59
2023/11/14 01:25:29;;;;;;;35.47;5.27;;;12.20;99.90;;;;;;5047580;28;20209;-59
2023/11/14 01:27:57;;;;;;;29.07;5.30;;;12.20;99.90;;;;;;5046521;28;20216;-59
2023/11/14 01:30:26;;;;;;;30.23;5.00;;;12.20;99.90;;;;;;5047717;28;20262;-59
2023/11/14 01:32:54;;;;;;;37.53;6.10;;;12.20;99.90;;;;;;5043859;28;20228;-59
2023/11/14 01:35:22;;;;;;;33.47;4.93;;;12.20;99.90;;;;;;5041270;28;20652;-59
2023/11/14 01:37:51;;;;;;;32.53;5.80;;;12.20;99.90;;;;;;5047207;28;20189;-59
2023/11/14 01:40:20;;;;;;;29.57;5.63;;;12.10;99.90;;;;;;5043282;28;20544;-59
2023/11/14 01:42:48;;;;;;;32.87;5.63;;;12.10;99.90;;;;;;5049213;28;21232;-59
2023/11/14 01:45:16;;;;;;;32.90;5.13;;;12.20;99.90;;;;;;5045575;28;20220;-59
2023/11/14 01:47:47;;;;;;;31.67;4.73;;;12.20;99.90;;;;;;5042519;28;20568;-59
2023/11/14 01:50:16;;;;;;;28.67;4.50;;;12.20;99.90;;;;;;5044598;28;20308;-58
2023/11/14 01:52:45;;;;;;;41.13;6.47;;;12.20;99.90;;;;;;5044315;28;20271;-58
2023/11/14 01:55:16;;;;;;;32.70;5.77;;;12.20;99.90;;;;;;5044048;28;20193;-58
2023/11/14 01:57:46;;;;;;;35.43;5.10;;;12.20;99.90;;;;;;5047582;28;20209;-59
2023/11/14 02:00:16;;;;;;;26.73;4.77;;;12.10;99.90;;;;;;5051613;28;20594;-59
2023/11/14 02:02:44;;;;;;;24.73;4.80;;;12.10;99.90;;;;;;5043774;28;20213;-58
2023/11/14 02:05:13;;;;;;;31.83;5.33;;;12.10;99.90;;;;;;5046785;28;20216;-59
2023/11/14 02:07:41;;;;;;;33.47;4.80;;;12.10;99.90;;;;;;5049028;28;20196;-58
2023/11/14 02:10:10;;;;;;;30.60;5.60;;;12.00;99.90;;;;;;5041954;28;20293;-59
2023/11/14 02:12:40;;;;;;;28.37;4.77;;;12.00;99.90;;;;;;5040779;28;20592;-59
2023/11/14 02:15:10;;;;;;;27.30;4.73;;;12.00;99.90;;;;;;5040117;28;20217;-59
2023/11/14 02:17:43;;;;;;;29.83;4.63;;;12.00;99.90;;;;;;5049383;28;20255;-59
2023/11/14 02:20:12;;;;;;;30.33;4.40;;;12.00;99.90;;;;;;5044781;28;20279;-59
2023/11/14 02:22:42;;;;;;;33.03;4.93;;;11.90;99.90;;;;;;5048897;28;20228;-59
2023/11/14 02:25:12;;;;;;;32.20;4.73;;;11.80;99.90;;;;;;5045016;28;20630;-59
2023/11/14 02:27:40;;;;;;;30.10;4.87;;;11.70;99.90;;;;;;5044307;28;20716;-59
2023/11/14 02:30:09;;;;;;;31.20;4.90;;;11.70;99.90;;;;;;5043969;28;20221;-59
2023/11/14 02:32:37;;;;;;;33.37;5.20;;;11.60;99.90;;;;;;5044133;28;20221;-60
2023/11/14 02:35:07;;;;;;;29.43;5.47;;;11.60;99.90;;;;;;5046458;28;20231;-59
2023/11/14 02:37:36;;;;;;;22.47;5.17;;;11.60;99.90;;;;;;5048701;28;20193;-59
2023/11/14 02:40:05;;;;;;;33.40;4.93;;;11.60;99.90;;;;;;5042440;28;20216;-59
2023/11/14 02:42:34;;;;;;;28.43;4.80;;;11.60;99.90;;;;;;5046307;28;20217;-59
2023/11/14 02:45:06;;;;;;;28.73;5.20;;;11.70;99.90;;;;;;5040185;28;20272;-60
2023/11/14 02:47:35;;;;;;;39.00;5.50;;;11.80;99.90;;;;;;5047158;28;20216;-59
2023/11/14 02:50:12;;;;;;;30.43;5.57;;;11.80;99.90;;;;;;5046648;28;20297;-59
2023/11/14 02:52:40;;;;;;;42.70;6.10;;;11.80;99.90;;;;;;5041805;28;20201;-59
2023/11/14 02:55:09;;;;;;;33.70;4.87;;;11.80;99.90;;;;;;5047463;28;20252;-59
2023/11/14 02:57:38;;;;;;;40.17;5.63;;;11.80;99.90;;;;;;5041767;28;20255;-59
2023/11/14 03:00:08;;;;;;;29.40;4.53;;;11.80;99.90;;;;;;5045424;28;20724;-59
2023/11/14 03:02:36;;;;;;;30.37;4.90;;;11.70;99.90;;;;;;5040186;28;20225;-59
2023/11/14 03:05:05;;;;;;;30.73;5.10;;;11.80;99.90;;;;;;5046315;28;20237;-59
2023/11/14 03:07:34;;;;;;;25.67;4.97;;;11.80;99.90;;;;;;5045191;28;20304;-59
2023/11/14 03:10:03;;;;;;;34.40;4.60;;;11.80;99.90;;;;;;5046804;28;20317;-59
2023/11/14 03:12:31;;;;;;;35.37;6.00;;;11.80;99.90;;;;;;5049026;28;20224;-59
2023/11/14 03:15:02;;;;;;;29.87;4.73;;;11.80;99.90;;;;;;5045923;28;20687;-59
2023/11/14 03:17:31;;;;;;;31.83;4.53;;;11.80;99.90;;;;;;5047727;28;20224;-59
2023/11/14 03:19:59;;;;;;;31.63;4.90;;;11.80;99.90;;;;;;5040711;28;20229;-59
2023/11/14 03:22:27;;;;;;;32.13;4.57;;;11.80;99.90;;;;;;5041512;28;20230;-59
2023/11/14 03:24:55;;;;;;;28.87;5.10;;;11.90;99.90;;;;;;5044879;28;20233;-59
2023/11/14 03:27:23;;;;;;;27.97;5.27;;;11.90;99.90;;;;;;5045875;28;20216;-59
2023/11/14 03:29:52;;;;;;;34.50;4.93;;;11.90;99.90;;;;;;5047284;28;20213;-59
2023/11/14 03:32:22;;;;;;;37.60;4.97;;;11.90;99.90;;;;;;5042179;28;20221;-59
2023/11/14 03:34:50;;;;;;;28.50;4.93;;;11.90;99.90;;;;;;5041273;28;20200;-60
2023/11/14 03:37:19;;;;;;;26.60;4.70;;;11.80;99.90;;;;;;5042180;28;20675;-59
2023/11/14 03:39:48;;;;;;;28.07;4.67;;;11.80;99.90;;;;;;5043332;28;20221;-60
2023/11/14 03:42:16;;;;;;;26.63;4.47;;;11.80;99.90;;;;;;5042181;28;21116;-59
2023/11/14 03:44:44;;;;;;;29.93;4.63;;;11.70;99.90;;;;;;5044580;28;20339;-59
2023/11/14 03:47:13;;;;;;;31.70;4.97;;;11.70;99.90;;;;;;5043251;28;20238;-59
2023/11/14 03:49:42;;;;;;;23.50;4.93;;;11.70;99.90;;;;;;5044605;28;20239;-59
2023/11/14 03:52:11;;;;;;;23.63;4.53;;;11.60;99.90;;;;;;5044317;28;20678;-59
2023/11/14 03:54:39;;;;;;;42.27;4.97;;;11.50;99.90;;;;;;5040510;28;20221;-59
2023/11/14 03:57:07;;;;;;;26.97;4.90;;;11.50;99.90;;;;;;5038818;28;20268;-59
2023/11/14 03:59:36;;;;;;;29.03;4.70;;;11.40;99.90;;;;;;5043380;28;20220;-58
2023/11/14 04:02:05;;;;;;;32.37;5.23;;;11.40;99.90;;;;;;5042140;28;20234;-59
2023/11/14 04:04:33;;;;;;;41.03;5.13;;;11.40;99.90;;;;;;5046974;28;20204;-59
2023/11/14 04:07:03;;;;;;;35.70;5.37;;;11.30;99.90;;;;;;5039975;28;21344;-59
2023/11/14 04:09:31;;;;;;;29.87;4.60;;;11.30;99.90;;;;;;5044224;28;20596;-60
2023/11/14 04:11:59;;;;;;;39.40;4.80;;;11.30;99.90;;;;;;5045487;28;20231;-59
2023/11/14 04:14:28;;;;;;;27.00;4.43;;;11.40;99.90;;;;;;5046538;28;20347;-59
2023/11/14 04:16:56;;;;;;;29.63;4.57;;;11.40;99.90;;;;;;5044063;28;20200;-59
2023/11/14 04:19:24;;;;;;;36.40;5.10;;;11.40;99.90;;;;;;5046122;28;20192;-59
2023/11/14 04:21:52;;;;;;;28.90;5.07;;;11.40;99.90;;;;;;5040898;28;20236;-59
2023/11/14 04:24:23;;;;;;;33.23;4.73;;;11.30;99.90;;;;;;5044913;28;20232;-59
2023/11/14 04:26:51;;;;;;;26.47;4.27;;;11.30;99.90;;;;;;5040385;28;20304;-59
2023/11/14 04:29:19;;;;;;;29.10;4.90;;;11.30;99.90;;;;;;5045194;28;20259;-58
2023/11/14 04:31:48;;;;;;;29.57;5.17;;;11.30;99.90;;;;;;5045982;28;20189;-59
2023/11/14 04:34:16;;;;;;;31.73;4.90;;;11.30;99.90;;;;;;5047374;28;20218;-59
2023/11/14 04:36:45;;;;;;;23.80;4.73;;;11.30;99.90;;;;;;5041496;28;20239;-59
2023/11/14 04:39:13;;;;;;;24.43;4.37;;;11.30;99.90;;;;;;5045215;28;20731;-59
2023/11/14 04:41:43;;;;;;;31.03;5.50;;;11.20;99.90;;;;;;5046812;28;20556;-59
2023/11/14 04:44:12;;;;;;;33.70;4.60;;;11.20;99.90;;;;;;5048340;28;20216;-59
2023/11/14 04:46:44;;;;;;;24.30;4.33;;;11.10;99.90;;;;;;5045123;28;20193;-58
2023/11/14 04:49:12;;;;;;;28.00;5.00;;;11.20;99.90;;;;;;5047418;28;20262;-59
2023/11/14 04:51:40;;;;;;;38.37;5.13;;;11.20;99.90;;;;;;5042980;28;20209;-59
2023/11/14 04:54:08;;;;;;;26.50;4.60;;;11.20;99.90;;;;;;5049368;28;20568;-58
2023/11/14 04:56:37;;;;;;;29.57;4.80;;;11.20;99.90;;;;;;5043221;28;20304;-59
2023/11/14 04:59:06;;;;;;;28.13;4.80;;;11.20;99.90;;;;;;5048209;28;20292;-59
2023/11/14 05:01:34;;;;;;;25.97;5.20;;;11.20;99.90;;;;;;5045627;28;20224;-59
2023/11/14 05:04:03;;;;;;;38.50;5.33;;;11.20;99.90;;;;;;5043250;28;20832;-60
2023/11/14 05:06:32;;;;;;;26.30;4.60;;;11.20;99.90;;;;;;5046548;28;20240;-59
2023/11/14 05:09:00;;;;;;;29.33;5.63;;;11.20;99.90;;;;;;5045740;28;20336;-59
2023/11/14 05:11:29;;;;;;;29.17;4.90;;;11.20;99.90;;;;;;5050343;28;20235;-59
2023/11/14 05:13:57;;;;;;;30.37;4.93;;;11.30;99.90;;;;;;5047558;28;20200;-59
2023/11/14 05:16:26;;;;;;;22.53;4.33;;;11.30;99.90;;;;;;5049123;28;20224;-59
2023/11/14 05:18:55;;;;;;;30.87;5.10;;;11.30;99.90;;;;;;5048679;28;20342;-59
2023/11/14 05:21:23;;;;;;;30.37;4.73;;;11.30;99.90;;;;;;5046066;28;20304;-58
2023/11/14 05:23:51;;;;;;;25.27;4.23;;;11.30;99.90;;;;;;5046531;28;20755;-60
2023/11/14 05:26:19;;;;;;;22.57;4.90;;;11.30;99.90;;;;;;5044548;28;20721;-59
2023/11/14 05:28:47;;;;;;;25.60;4.10;;;11.30;99.90;;;;;;5045514;28;20251;-59
2023/11/14 05:31:16;;;;;;;33.90;5.40;;;11.40;99.90;;;;;;5044056;28;20619;-59
2023/11/14 05:33:46;;;;;;;31.23;5.03;;;11.30;99.90;;;;;;5042653;28;20576;-58
2023/11/14 05:36:15;;;;;;;36.13;5.03;;;11.30;99.90;;;;;;5047393;28;20216;-59
2023/11/14 05:38:45;;;;;;;26.33;4.67;;;11.40;99.90;;;;;;5044054;28;20240;-59
2023/11/14 05:41:14;;;;;;;27.37;4.63;;;11.50;99.90;;;;;;5043187;28;20221;-59
2023/11/14 05:43:42;;;;;;;21.50;4.63;;;11.60;99.90;;;;;;5045551;28;20190;-59
2023/11/14 05:46:10;;;;;;;20.73;4.80;;;11.60;99.90;;;;;;5044210;28;20607;-58
2023/11/14 05:48:39;;;;;;;27.40;4.97;;;11.50;99.90;;;;;;5045337;28;20228;-59
2023/11/14 05:51:09;;;;;;;25.10;4.80;;;11.50;99.90;;;;;;5044757;28;20235;-59
2023/11/14 05:53:37;;;;;;;28.47;4.87;;;11.60;99.90;;;;;;5044658;28;20216;-59
2023/11/14 05:56:06;;;;;;;17.53;4.47;;;11.60;99.90;;;;;;5044272;28;20221;-59
2023/11/14 05:58:34;;;;;;;25.73;4.87;;;11.60;99.90;;;;;;5046879;28;20185;-59
2023/11/14 06:01:03;;;;;;;21.63;3.93;;;11.60;99.90;;;;;;5042990;28;20307;-59
2023/11/14 06:03:31;;;;;;;33.50;5.33;;;11.60;99.90;;;;;;5043164;28;20224;-59
2023/11/14 06:06:02;;;;;;;28.80;5.37;;;11.50;99.90;;;;;;5044385;28;20571;-59
2023/11/14 06:08:31;;;;;;;26.57;4.57;;;11.50;99.90;;;;;;5047023;28;20236;-59
2023/11/14 06:11:00;;;;;;;21.93;4.50;;;11.60;99.90;;;;;;5046471;28;20236;-59
2023/11/14 06:13:28;;;;;;;29.67;5.37;;;11.60;99.90;;;;;;5046419;28;20204;-59
2023/11/14 06:15:56;;;;;;;25.73;4.40;;;11.60;99.90;;;;;;5046260;28;20213;-59
2023/11/14 06:18:25;;;;;;;29.40;5.13;;;11.60;99.90;;;;;;5038412;28;20959;-59
2023/11/14 06:20:53;;;;;;;27.57;4.27;;;11.60;99.90;;;;;;5042144;28;20576;-59
2023/11/14 06:23:21;;;;;;;22.60;4.47;;;11.50;99.90;;;;;;5045097;28;20304;-59
2023/11/14 06:25:51;;;;;;;24.10;5.07;;;11.60;99.90;;;;;;5045464;28;20267;-59
2023/11/14 06:28:19;;;;;;;24.17;4.50;;;11.50;99.90;;;;;;5045717;28;20674;-59
2023/11/14 06:30:47;;;;;;;28.33;5.13;;;11.50;99.90;;;;;;5047767;28;20263;-59
2023/11/14 06:33:16;;;;;;;32.60;5.00;;;11.40;99.90;;;;;;5047466;28;20232;-59
2023/11/14 06:35:47;;;;;;;26.47;5.50;;;11.40;99.90;;;;;;5041744;28;20217;-59
2023/11/14 06:38:15;;;;;;;30.73;5.43;;;11.40;99.90;;;;;;5044813;28;20228;-59
2023/11/14 06:40:45;;;;;;;30.70;6.00;;;11.40;99.90;;;;;;5047926;28;20197;-59
2023/11/14 06:43:15;;;;;;;32.33;6.13;;;11.30;99.90;;;;;;5053103;28;20227;-59
2023/11/14 06:45:43;;;;;;;45.10;6.47;;;11.20;99.90;;;;;;5046707;28;20228;-59
2023/11/14 06:48:11;;;;;;;34.87;5.70;;;11.20;99.90;;;;;;5048110;28;20217;-59
2023/11/14 06:50:40;;;;;;;31.87;5.40;;;11.20;99.90;;;;;;5048593;28;20216;-60
2023/11/14 06:53:12;;;;;;;31.80;5.20;;;11.10;99.90;;;;;;5045046;28;20225;-59
2023/11/14 06:55:41;;;;;;;34.07;5.40;;;11.10;99.90;;;;;;5043190;28;20197;-59
2023/11/14 06:58:10;;;;;;;34.50;5.83;;;11.10;99.90;;;;;;5043690;28;20193;-59
2023/11/14 07:00:41;;;;;;;31.03;5.13;;;11.10;99.90;;;;;;5042234;28;20213;-59
2023/11/14 07:03:10;;;;;;;24.77;4.97;;;11.10;99.90;;;;;;5047076;28;20252;-60
2023/11/14 07:05:38;;;;;;;30.73;4.23;;;11.10;99.90;;;;;;5046742;28;20216;-59
2023/11/14 07:08:07;;;;;;;21.53;4.90;;;11.00;99.90;;;;;;5046158;28;20728;-59
2023/11/14 07:10:35;;;;;;;36.27;5.03;;;11.10;99.90;;;;;;5046313;28;20197;-60
2023/11/14 07:13:04;;;;;;;26.90;5.20;;;11.10;99.90;;;;;;5044814;28;20217;-59
2023/11/14 07:15:33;;;;;;;28.63;5.40;;;11.20;99.90;;;;;;5046686;28;21223;-59
2023/11/14 07:18:08;;;;;;;28.47;5.20;;;11.30;99.90;;;;;;5047672;28;20216;-59
2023/11/14 07:20:36;;;;;;;29.27;5.50;;;11.30;99.90;;;;;;5046648;28;20311;-60
2023/11/14 07:23:05;;;;;;;33.70;5.57;;;11.30;99.90;;;;;;5047738;28;20235;-59
2023/11/14 07:25:34;;;;;;;28.33;5.30;;;11.20;99.90;;;;;;5041704;28;20433;-59
2023/11/14 07:28:04;;;;;;;34.23;5.60;;;11.20;99.90;;;;;;5032527;28;20224;-59
2023/11/14 07:30:33;;;;;;;26.57;5.20;;;11.20;99.90;;;;;;5040565;28;20213;-59
2023/11/14 07:33:03;;;;;;;37.83;6.00;;;11.20;99.90;;;;;;5036404;28;20217;-59
2023/11/14 07:35:31;;;;;;;21.80;5.00;;;11.20;99.90;;;;;;5047047;28;20753;-59
2023/11/14 07:38:00;;;;;;;30.33;5.63;;;11.20;99.90;;;;;;5050485;28;20227;-59
2023/11/14 07:40:28;;;;;;;38.90;5.70;;;11.30;99.90;;;;;;5045271;28;20189;-59
2023/11/14 07:42:56;;;;;;;33.93;6.10;;;11.30;99.90;;;;;;5046738;28;20578;-59
2023/11/14 07:45:25;;;;;;;27.67;5.17;;;11.30;99.90;;;;;;5042937;28;20237;-59
2023/11/14 07:47:53;;;;;;;23.20;5.17;;;11.30;99.90;;;;;;5040275;28;20222;-59
2023/11/14 07:50:23;;;;;;;22.57;5.00;;;11.40;99.90;;;;;;5042479;28;20220;-59
2023/11/14 07:52:52;;;;;;;22.03;4.77;;;11.30;99.90;;;;;;5040876;28;20279;-59
2023/11/14 07:55:20;;;;;;;32.00;5.17;;;11.40;99.90;;;;;;5039548;28;20193;-60
2023/11/14 07:57:48;;;;;;;27.53;4.93;;;11.40;99.90;;;;;;5046693;28;20307;-59
2023/11/14 08:00:18;;;;;;;23.57;5.63;;;11.40;99.90;;;;;;5046919;28;22698;-59
2023/11/14 08:02:46;;;;;;;22.40;5.27;;;11.40;99.90;;;;;;5046718;28;20251;-59
2023/11/14 08:05:17;;;;;;;27.80;5.17;;;11.40;99.90;;;;;;5037970;28;20580;-59
2023/11/14 08:07:46;;;;;;;27.57;5.20;;;11.40;99.90;;;;;;5042081;28;20219;-60
2023/11/14 08:10:16;;;;;;;20.07;4.70;;;11.50;99.90;;;;;;5036423;28;20466;-59
2023/11/14 08:12:45;;;;;;;21.90;4.87;;;11.50;99.90;;;;;;5039319;28;20227;-59
2023/11/14 08:15:13;;;;;;;31.37;5.60;;;11.50;99.90;;;;;;5041601;28;20221;-59
2023/11/14 08:17:41;;;;;;;25.90;5.87;;;11.50;99.90;;;;;;5043300;28;20303;-59
2023/11/14 08:20:12;;;;;;;28.47;6.00;;;11.50;99.90;;;;;;5038896;28;20681;-59
2023/11/14 08:22:40;;;;;;;30.70;6.30;;;11.50;99.90;;;;;;5042493;28;20270;-59
2023/11/14 08:25:10;;;;;;;28.43;6.27;;;11.50;99.90;;;;;;5042641;28;20213;-59
2023/11/14 08:27:40;;;;;;;25.00;6.00;;;11.50;99.90;;;;;;5039132;28;20730;-59
2023/11/14 08:30:12;;;;;;;27.67;6.53;;;11.50;99.90;;;;;;5042241;28;20266;-59
2023/11/14 08:32:44;;;;;;;32.13;6.07;;;11.40;99.90;;;;;;5041191;28;20227;-59
2023/11/14 08:35:13;;;;;;;27.47;5.27;;;11.40;99.90;;;;;;5044550;28;20316;-59
2023/11/14 08:37:43;;;;;;;26.93;5.30;;;11.40;99.90;;;;;;5047533;28;20280;-58
2023/11/14 08:40:13;;;;;;;16.57;4.77;;;11.40;99.90;;;;;;5042256;28;20201;-59
2023/11/14 08:42:44;;;;;;;24.53;4.97;;;11.40;99.90;;;;;;5049058;28;20212;-59
2023/11/14 08:45:12;;;;;;;25.13;5.43;;;11.40;99.90;;;;;;5046231;28;20227;-59
2023/11/14 08:47:42;;;;;;;28.60;5.67;;;11.40;99.90;;;;;;5040887;28;20271;-60
2023/11/14 08:50:10;;;;;;;32.20;5.00;;;11.40;99.90;;;;;;5045076;28;20286;-59
2023/11/14 08:52:39;;;;;;;32.90;5.30;;;11.40;99.90;;;;;;5047863;28;20217;-59
2023/11/14 08:55:07;;;;;;;22.67;4.20;;;11.40;99.90;;;;;;5025548;28;20218;-60
2023/11/14 08:57:37;;;;;;;30.67;5.07;;;11.30;99.90;;;;;;5018962;28;20229;-59
2023/11/14 09:00:09;;;;;;;28.70;4.70;;;11.30;99.90;;;;;;5020560;28;20221;-59
2023/11/14 09:02:38;;;;;;;17.37;4.80;;;11.20;99.90;;;;;;5016774;28;20581;-59
2023/11/14 09:05:09;;;;;;;23.70;4.87;;;11.20;99.90;;;;;;5015114;28;20236;-59
2023/11/14 09:07:38;;;;;;;22.60;4.40;;;11.20;99.90;;;;;;5024009;28;20301;-59
2023/11/14 09:10:07;;;;;;;15.33;4.07;;;11.10;99.90;;;;;;5020626;28;20228;-60
2023/11/14 09:12:37;;;;;;;18.73;4.20;;;11.10;99.90;;;;;;5021738;28;20545;-59
2023/11/14 09:15:07;;;;;;;15.27;4.17;;;11.10;99.90;;;;;;5020480;28;20224;-59
2023/11/14 09:17:36;;;;;;;15.23;3.17;;;11.00;99.90;;;;;;5020997;28;20234;-59
2023/11/14 09:20:11;;;;;;;8.37;2.47;;;11.00;99.90;;;;;;5018043;28;20229;-59
2023/11/14 09:22:40;;;;;;;12.13;3.33;;;10.90;99.90;;;;;;5023965;28;20287;-59
2023/11/14 09:25:09;;;;;;;7.80;2.97;;;10.90;99.90;;;;;;5025217;28;20202;-60
2023/11/14 09:27:39;;;;;;;9.33;3.47;;;10.90;99.90;;;;;;5022510;28;20236;-59
2023/11/14 09:30:11;;;;;;;10.57;2.80;;;10.90;99.90;;;;;;5021064;28;20699;-59
2023/11/14 09:32:40;;;;;;;8.53;3.17;;;10.90;99.90;;;;;;5026602;28;20244;-59
2023/11/14 09:35:10;;;;;;;4.83;2.63;;;10.90;99.90;;;;;;5024916;28;20226;-59
2023/11/14 09:37:38;;;;;;;4.43;2.03;;;10.90;99.90;;;;;;5025715;28;20549;-60
2023/11/14 09:40:08;;;;;;;3.37;1.93;;;11.00;99.90;;;;;;5023399;28;20236;-60
2023/11/14 09:42:38;;;;;;;6.13;2.50;;;11.00;99.90;;;;;;5025043;28;20234;-59
2023/11/14 09:45:10;;;;;;;5.80;2.20;;;11.10;99.90;;;;;;5023649;28;20230;-59
2023/11/14 09:47:39;;;;;;;12.40;3.00;;;11.00;99.90;;;;;;5024582;28;20244;-60
2023/11/14 09:50:09;;;;;;;13.17;2.90;;;11.00;99.90;;;;;;5025275;28;20233;-60
2023/11/14 09:52:37;;;;;;;7.20;3.20;;;11.00;99.90;;;;;;5022120;28;20285;-59
2023/11/14 09:55:08;;;;;;;5.20;3.00;;;11.00;99.90;;;;;;5028997;28;20221;-59
2023/11/14 09:57:39;;;;;;;5.83;2.50;;;11.00;99.90;;;;;;5021106;28;20314;-60
2023/11/14 10:00:11;;;;;;;6.87;3.00;;;11.00;99.90;;;;;;5025931;28;20316;-59
2023/11/14 10:02:41;;;;;;;12.20;3.40;;;11.00;99.90;;;;;;5022876;28;20228;-60
2023/11/14 10:05:09;;;;;;;10.07;3.77;;;11.00;99.90;;;;;;5019473;28;20284;-60
2023/11/14 10:07:44;;;;;;;9.73;4.47;;;11.00;99.90;;;;;;5020390;28;20210;-59
2023/11/14 10:10:14;;;;;;;13.57;4.47;;;11.00;99.90;;;;;;5021911;28;20190;-60
2023/11/14 10:12:44;;;;;;;11.47;4.07;;;11.00;99.90;;;;;;5023815;28;20250;-60
2023/11/14 10:15:12;;;;;;;14.83;4.67;;;11.00;99.90;;;;;;5023447;28;20227;-59
2023/11/14 10:17:42;;;;;;;17.03;4.87;;;11.00;99.90;;;;;;5025773;28;20305;-60
2023/11/14 10:20:11;;;;;;;18.67;4.93;;;11.00;99.90;;;;;;5028060;28;20232;-59
2023/11/14 10:22:47;;;;;;;12.97;5.57;;;11.00;99.90;;;;;;5024270;28;20218;-60
2023/11/14 10:25:26;;;;;;;13.23;4.80;;;11.00;99.90;;;;;;5025459;28;20198;-60
2023/11/14 10:28:00;;;;;;;17.37;4.87;;;11.00;99.90;;;;;;5022377;28;20244;-60
2023/11/14 10:30:49;;;;;;;16.93;5.03;;;11.00;99.90;;;;;;5020047;28;20315;-60
2023/11/14 10:33:18;;;;;;;27.50;5.90;;;11.00;99.90;;;;;;5022904;28;20220;-60
2023/11/14 10:35:47;;;;;;;23.37;6.67;;;11.00;99.90;;;;;;5025939;28;20222;-59
2023/11/14 10:38:19;;;;;;;23.23;6.23;;;11.00;99.90;;;;;;5019509;28;20337;-59
2023/11/14 10:40:52;;;;;;;22.03;6.63;;;11.00;99.90;;;;;;5021093;28;20201;-59
2023/11/14 10:43:29;;;;;;;29.37;6.80;;;11.10;99.90;;;;;;5023979;28;20229;-59
2023/11/14 10:46:00;;;;;;;28.50;6.30;;;11.10;99.90;;;;;;5018407;28;20221;-60
2023/11/14 10:48:29;;;;;;;35.40;7.83;;;11.10;99.90;;;;;;5018231;28;20243;-59
2023/11/14 10:50:58;;;;;;;38.73;8.47;;;11.10;99.90;;;;;;5020515;28;20336;-60
2023/11/14 10:53:27;;;;;;;31.40;6.90;;;11.10;99.90;;;;;;5016435;28;20244;-59
2023/11/14 10:55:57;;;;;;;32.73;5.90;;;11.10;99.90;;;;;;5022650;28;20683;-59
2023/11/14 10:58:27;;;;;;;33.73;6.40;;;11.20;99.90;;;;;;5025068;28;20281;-60
2023/11/14 11:00:58;;;;;;;26.23;6.13;;;11.20;99.90;;;;;;5021374;28;20217;-60
2023/11/14 11:03:27;;;;;;;35.30;5.90;;;11.20;99.90;;;;;;5020957;28;20220;-60
2023/11/14 11:05:56;;;;;;;40.20;6.30;;;11.30;99.90;;;;;;5021849;28;20217;-60
2023/11/14 11:08:24;;;;;;;34.90;6.07;;;11.30;99.90;;;;;;5016974;28;20228;-60
2023/11/14 11:10:53;;;;;;;33.50;8.57;;;11.40;99.90;;;;;;5023486;28;20718;-60
2023/11/14 11:13:24;;;;;;;34.80;6.80;;;11.50;99.90;;;;;;5025234;28;20202;-60
2023/11/14 11:15:55;;;;;;;27.43;5.87;;;11.50;99.90;;;;;;5028285;28;20293;-60
2023/11/14 11:18:34;;;;;;;30.00;5.67;;;11.60;99.90;;;;;;5023491;28;20224;-60
2023/11/14 11:21:10;;;;;;;37.87;6.60;;;11.60;99.90;;;;;;5024301;28;20241;-58
2023/11/14 11:24:06;;;;;;;29.70;5.67;;;11.60;99.90;;;;;;5020992;28;20237;-58
2023/11/14 11:26:54;;;;;;;38.73;6.37;;;11.50;99.90;;;;;;5005907;28;20240;-61
2023/11/14 11:29:49;;;;;;;29.30;5.40;;;11.50;99.90;;;;;;5018279;28;20230;-61
2023/11/14 11:32:27;;;;;;;26.90;5.37;;;11.50;99.90;;;;;;5022412;28;20235;-61
2023/11/14 11:35:25;;;;;;;21.60;4.77;;;11.50;99.90;;;;;;5020822;28;20263;-60
2023/11/14 11:37:55;;;;;;;30.17;5.53;;;11.50;99.90;;;;;;5021311;28;20193;-60
2023/11/14 11:40:26;;;;;;;38.87;6.13;;;11.50;99.90;;;;;;5022011;28;20205;-61
2023/11/14 11:42:59;;;;;;;31.20;5.60;;;11.50;99.90;;;;;;5018172;28;20244;-60
2023/11/14 11:45:36;;;;;;;22.93;5.03;;;11.50;99.90;;;;;;5026265;28;20255;-58
2023/11/14 11:48:26;;;;;;;28.97;5.73;;;11.40;99.90;;;;;;5017046;28;20687;-59
2023/11/14 11:50:55;;;;;;;29.17;5.47;;;11.40;99.90;;;;;;5020070;28;20550;-59
2023/11/14 11:53:42;;;;;;;32.60;6.03;;;11.40;99.90;;;;;;5013191;28;20628;-59
2023/11/14 11:56:40;;;;;;;25.33;5.20;;;11.40;99.90;;;;;;5020011;28;20354;-59
2023/11/14 11:59:08;;;;;;;31.20;5.47;;;11.40;99.90;;;;;;5016390;28;20663;-59
2023/11/14 12:01:48;;;;;;;24.80;5.27;;;11.30;99.90;;;;;;5022537;28;20280;-59
2023/11/14 12:04:19;;;;;;;19.10;4.43;;;11.30;99.90;;;;;;5017637;28;20210;-59
2023/11/14 12:06:49;;;;;;;30.37;4.77;;;11.30;99.90;;;;;;5017136;28;20316;-59
2023/11/14 12:09:18;;;;;;;23.50;4.90;;;11.30;99.90;;;;;;5015419;28;20236;-59
2023/11/14 12:11:46;;;;;;;16.40;4.60;;;11.20;99.90;;;;;;5022246;28;20672;-60
2023/11/14 12:14:18;;;;;;;16.33;3.93;;;11.20;99.90;;;;;;5018184;28;20819;-60
2023/11/14 12:16:49;;;;;;;20.83;4.50;;;11.20;99.90;;;;;;5018329;28;20193;-59
2023/11/14 12:19:19;;;;;;;16.93;3.73;;;11.10;99.90;;;;;;5023996;28;20193;-60
2023/11/14 12:21:47;;;;;;;18.23;4.33;;;11.00;99.90;;;;;;5017251;28;20721;-60
2023/11/14 12:24:16;;;;;;;15.30;3.30;;;10.90;99.90;;;;;;5020760;28;20209;-60
2023/11/14 12:26:45;;;;;;;15.40;2.80;;;10.70;99.90;;;;;;5022568;28;20248;-59
2023/11/14 12:29:13;;;;;;;15.73;3.23;;;10.70;99.90;;;;;;5014333;28;20221;-59
2023/11/14 12:31:46;;;;;;;19.47;3.37;;;10.70;99.90;;;;;;5016189;28;20194;-59
2023/11/14 12:34:25;;;;;;;10.10;2.70;;;10.60;99.90;;;;;;5020593;28;20209;-58
2023/11/14 12:37:07;;;;;;;12.57;3.23;;;10.60;99.90;;;;;;5017373;28;20332;-59
2023/11/14 12:39:36;;;;;;;10.20;3.27;;;10.60;99.90;;;;;;5016115;28;21029;-59
2023/11/14 12:42:05;;;;;;;19.83;3.50;;;10.50;99.90;;;;;;5022852;28;20232;-59
2023/11/14 12:44:34;;;;;;;19.20;3.23;;;10.50;99.90;;;;;;5022542;28;20616;-60
2023/11/14 12:47:02;;;;;;;14.03;2.80;;;10.50;99.90;;;;;;5020112;28;20229;-59
2023/11/14 12:49:33;;;;;;;16.87;3.63;;;10.50;99.90;;;;;;5022795;28;20194;-59
2023/11/14 12:52:03;;;;;;;15.20;3.53;;;10.40;99.90;;;;;;5017727;28;20264;-59